Rochester, NY

1:08 PM EDT on September 02, 2014 (GMT -0400)
Dansville Municipal | Change Station
CLOSE
Current Station
Airport
Location: Dansville,
Elevation: 659 ft
Nearby Weather Stations

Elev 659 ft 42.57 °N, 77.71 °W | Updated 14 minutes ago

Partly Cloudy
Partly Cloudy
82 °F
Feels Like 84 °F
N
7
Wind Variable Wind from Variable

Today
High -- | Low -- °F
--% Chance of Precip.
Yesterday
High -- | Low -- °F
Precip. -- in
6:35 AM 7:43 PM
First Quarter, 53% visible
Pressure 29.88 in
Visibility 10.0 miles
Clouds Few 4600 ft
Few 5500 ft
Heat Index 84 °F
Dew Point 66 °F
Humidity 58%
Rainfall 0.01 in
Snow Depth Not available.
UV 8 out of 12
Pollen 7.00 out of 12
Air Quality Not available.
Flu Activity Not available.
METAR KDSV 021654Z AUTO VRB06KT 10SM FEW046 FEW055 28/19 A2986 RMK AO2 SLP116 T02780189

More Conditions Fewer Conditions

Pressure 29.88 in
Visibility 10.0 miles
Clouds Few 4600 ft
Few 5500 ft
Heat Index 84 °F
Dew Point 66 °F
Humidity 58%
Rainfall 0.01 in
Snow Depth Not available.
UV 8 out of 12
Pollen 7.00 out of 12
Air Quality Not available.
Flu Activity Not available.
METAR KDSV 021654Z AUTO VRB06KT 10SM FEW046 FEW055 28/19 A2986 RMK AO2 SLP116 T02780189

More Conditions Fewer Conditions

10-Day Weather Forecast

Almanac

Astronomy

Sep. 02, 2014 Rise Set
Actual Time 6:35 AM EDT 7:43 PM EDT
Civil Twilight 6:06 AM EDT 8:12 PM EDT
Nautical Twilight 5:31 AM EDT 8:47 PM EDT
Astronomical Twilight 4:54 AM EDT 9:24 PM EDT
Moon 2:29 PM EDT No Moon Set
Length of Visible Light 14h 06m
Length of Day
13h 07m
Tomorrow will be 2m 51s shorter.
First Quarter, 53% of the Moon is Illuminated
Today
First Quarter
Sep 8
Full
Sep 15
Last Quarter
Sep 24
New
Oct 1
First Quarter

Today's Extremes

State Highs State Lows

Community

WunderPhotos

Upload Photos

1,749,720 photos uploaded!

Nearby

Air Quality

  Air Quality AQ Index Pollutant
Tuesday Good
PM2.5
Tuesday Good
OZONE
Wednesday Good
PM2.5

Snow Depth

Station Depth Elevation
No new snow has been reported.

Earthquake Activity

City Distance Mag. Time & Date
No recent earthquake activity has been reported nearby.
Minimum magnitude displayed is 2.5.

Coastal Water Temperatures

Place Temperature
Buffalo, NY 73.9 °F
Alexandria Bay, NY 70.0 °F

Nearby Weather Stations